createdAt,value
2018-12-01T00:00:20.971Z,86.79
2018-12-01T00:02:49.932Z,86.82
2018-12-01T00:05:32.360Z,86.84
2018-12-01T00:08:09.272Z,87.06
2018-12-01T00:10:38.157Z,87.12
2018-12-01T00:13:06.772Z,86.85
2018-12-01T00:15:35.324Z,87.57
2018-12-01T00:18:03.883Z,87.41
2018-12-01T00:20:33.874Z,87.57
2018-12-01T00:23:02.464Z,87.45
2018-12-01T00:25:30.723Z,87.43
2018-12-01T00:28:02.526Z,87.93
2018-12-01T00:30:30.806Z,87.70
2018-12-01T00:32:59.344Z,87.97
2018-12-01T00:35:27.684Z,88.08
2018-12-01T00:37:56.003Z,87.97
2018-12-01T00:40:24.463Z,88.19
2018-12-01T00:42:52.803Z,87.94
2018-12-01T00:45:22.112Z,87.96
2018-12-01T00:47:51.512Z,87.68
2018-12-01T00:50:24.377Z,88.22
2018-12-01T00:52:53.537Z,87.96
2018-12-01T00:55:22.131Z,88.14
2018-12-01T00:57:53.640Z,88.17
2018-12-01T01:00:24.847Z,88.01
2018-12-01T01:02:56.485Z,88.24
2018-12-01T01:05:25.503Z,88.13
2018-12-01T01:07:54.785Z,88.28
2018-12-01T01:10:24.504Z,88.13
2018-12-01T01:12:53.305Z,87.82
2018-12-01T01:15:21.884Z,88.15
2018-12-01T01:17:50.403Z,88.33
2018-12-01T01:20:20.783Z,87.82
2018-12-01T01:22:49.187Z,87.92
2018-12-01T01:25:17.643Z,87.86
2018-12-01T01:27:47.924Z,87.90
2018-12-01T01:30:20.203Z,87.96
2018-12-01T01:32:48.922Z,88.16
2018-12-01T01:35:17.382Z,87.78
2018-12-01T01:37:45.984Z,87.91
2018-12-01T01:40:16.158Z,87.70
2018-12-01T01:42:44.625Z,88.09
2018-12-01T01:45:14.984Z,88.03
2018-12-01T01:47:43.403Z,87.87
2018-12-01T01:50:13.665Z,88.35
2018-12-01T01:52:42.004Z,87.94
2018-12-01T01:55:11.166Z,88.02
2018-12-01T01:57:39.614Z,87.84
2018-12-01T02:00:15.074Z,87.20
2018-12-01T02:02:44.492Z,87.31
2018-12-01T02:05:12.892Z,86.94
2018-12-01T02:07:41.272Z,86.73
2018-12-01T02:10:10.672Z,86.63
2018-12-01T02:12:39.112Z,86.73
2018-12-01T02:15:08.412Z,86.72
2018-12-01T02:17:36.672Z,86.49
2018-12-01T02:20:10.472Z,86.45
2018-12-01T02:22:38.813Z,86.36
2018-12-01T02:25:10.332Z,86.56
2018-12-01T02:27:38.572Z,86.47
2018-12-01T02:30:11.951Z,86.39
2018-12-01T02:32:40.252Z,86.41
2018-12-01T02:35:10.773Z,86.67
2018-12-01T02:37:39.053Z,87.30
2018-12-01T02:40:14.692Z,87.21
2018-12-01T02:42:43.494Z,86.75
2018-12-01T02:45:22.893Z,87.23
2018-12-01T02:47:51.392Z,87.56
2018-12-01T02:50:26.274Z,87.70
2018-12-01T02:52:55.513Z,87.83
2018-12-01T02:55:24.333Z,87.97
2018-12-01T02:57:52.633Z,88.00
2018-12-01T03:00:20.833Z,88.03
2018-12-01T03:02:49.354Z,88.19
2018-12-01T03:05:17.592Z,88.03
2018-12-01T03:07:45.973Z,87.56
2018-12-01T03:10:16.633Z,87.88
2018-12-01T03:12:45.013Z,87.94
2018-12-01T03:15:17.313Z,87.75
2018-12-01T03:17:45.793Z,87.77
2018-12-01T03:20:15.113Z,88.03
2018-12-01T03:22:43.412Z,87.95
2018-12-01T03:25:20.534Z,87.93
2018-12-01T03:27:49.714Z,88.00
2018-12-01T03:30:25.965Z,88.06
2018-12-01T03:32:55.130Z,87.65
2018-12-01T03:35:24.413Z,87.51
2018-12-01T03:37:53.113Z,87.05
2018-12-01T03:40:21.993Z,87.21
2018-12-01T03:42:51.073Z,86.74
2018-12-01T03:45:20.679Z,86.85
2018-12-01T03:47:49.472Z,86.54
2018-12-01T03:50:24.114Z,86.64
2018-12-01T03:52:53.672Z,86.10
2018-12-01T03:55:26.112Z,85.84
2018-12-01T03:57:54.574Z,85.80
2018-12-01T04:00:31.112Z,85.85
2018-12-01T04:03:00.415Z,86.07
2018-12-01T04:05:28.704Z,86.00
2018-12-01T04:07:57.129Z,85.70
2018-12-01T04:10:25.384Z,85.48
2018-12-01T04:12:54.725Z,85.46
2018-12-01T04:15:23.005Z,85.75
2018-12-01T04:17:51.366Z,85.56
2018-12-01T04:20:19.544Z,85.67
2018-12-01T04:22:49.466Z,86.14
2018-12-01T04:25:18.863Z,85.79
2018-12-01T04:27:47.106Z,86.09
2018-12-01T04:30:19.505Z,85.98
2018-12-01T04:32:47.784Z,86.18
2018-12-01T04:35:17.766Z,85.94
2018-12-01T04:37:46.906Z,86.07
2018-12-01T04:40:15.124Z,85.29
2018-12-01T04:42:43.843Z,85.54
2018-12-01T04:45:12.983Z,85.88
2018-12-01T04:47:41.192Z,85.78
2018-12-01T04:50:12.784Z,85.92
2018-12-01T04:52:41.084Z,85.91
2018-12-01T04:55:12.424Z,86.04
2018-12-01T04:57:42.944Z,86.63
2018-12-01T05:00:17.182Z,86.47
2018-12-01T05:02:47.863Z,86.55
2018-12-01T05:05:17.466Z,86.68
2018-12-01T05:07:45.725Z,86.63
2018-12-01T05:10:17.724Z,86.83
2018-12-01T05:12:46.087Z,86.83
2018-12-01T05:15:19.547Z,87.15
2018-12-01T05:17:47.963Z,86.79
2018-12-01T05:20:19.304Z,86.90
2018-12-01T05:22:47.859Z,86.76
2018-12-01T05:25:17.604Z,86.97
2018-12-01T05:27:45.932Z,86.57
2018-12-01T05:30:14.386Z,86.88
2018-12-01T05:32:42.784Z,86.60
2018-12-01T05:35:14.246Z,86.21
2018-12-01T05:37:42.644Z,86.29
2018-12-01T05:40:12.365Z,86.44
2018-12-01T05:42:43.824Z,86.40
2018-12-01T05:45:16.464Z,86.65
2018-12-01T05:47:44.847Z,86.37
2018-12-01T05:50:13.968Z,86.46
2018-12-01T05:52:42.304Z,86.63
2018-12-01T05:55:12.484Z,86.37
2018-12-01T05:57:40.884Z,86.10
2018-12-01T06:00:18.323Z,86.28
2018-12-01T06:02:53.644Z,86.57
2018-12-01T06:05:22.384Z,86.56
2018-12-01T06:07:53.005Z,86.42
2018-12-01T06:10:22.812Z,86.19
2018-12-01T06:12:55.544Z,85.86
2018-12-01T06:15:25.584Z,85.89
2018-12-01T06:17:54.184Z,85.65
2018-12-01T06:20:34.464Z,85.75
2018-12-01T06:23:03.104Z,85.53
2018-12-01T06:25:33.684Z,85.35
2018-12-01T06:28:02.249Z,85.37
2018-12-01T06:30:30.748Z,85.55
2018-12-01T06:32:59.684Z,85.01
2018-12-01T06:35:29.105Z,85.18
2018-12-01T06:38:03.104Z,85.24
2018-12-01T06:40:41.144Z,85.54
2018-12-01T06:43:10.212Z,85.44
2018-12-01T06:45:38.972Z,85.24
2018-12-01T06:48:07.273Z,85.61
2018-12-01T06:50:35.672Z,85.78
2018-12-01T06:53:04.155Z,85.40
2018-12-01T06:55:38.717Z,85.10
2018-12-01T06:58:15.993Z,85.29
2018-12-01T07:00:45.733Z,84.99
2018-12-01T07:03:13.993Z,85.15
2018-12-01T07:05:46.294Z,85.09
2018-12-01T07:08:15.224Z,84.93
2018-12-01T07:10:43.505Z,84.67
2018-12-01T07:13:17.845Z,84.78
2018-12-01T07:15:47.504Z,84.65
2018-12-01T07:18:26.844Z,84.24
2018-12-01T07:20:55.784Z,84.43
2018-12-01T07:23:25.244Z,84.28
2018-12-01T07:25:55.124Z,84.42
2018-12-01T07:28:23.784Z,84.73
2018-12-01T07:30:54.904Z,84.64
2018-12-01T07:33:39.305Z,84.56
2018-12-01T07:36:12.344Z,83.89
2018-12-01T07:38:47.584Z,83.81
2018-12-01T07:41:16.364Z,83.57
2018-12-01T07:43:45.725Z,83.69
2018-12-01T07:46:16.784Z,83.57
2018-12-01T07:48:45.364Z,83.64
2018-12-01T07:51:31.065Z,83.17
2018-12-01T07:54:09.984Z,83.31
2018-12-01T07:56:54.905Z,83.03
2018-12-01T08:02:08.505Z,83.39
2018-12-01T08:04:46.115Z,83.53
2018-12-01T08:07:20.205Z,83.40
2018-12-01T08:09:53.627Z,83.83
2018-12-01T08:15:05.745Z,84.12
2018-12-01T08:17:54.966Z,83.89
2018-12-01T08:20:35.585Z,83.56
2018-12-01T08:26:00.626Z,83.22
2018-12-01T08:28:30.625Z,83.61
2018-12-01T08:30:59.005Z,83.23
2018-12-01T08:33:28.587Z,82.77
2018-12-01T08:35:57.845Z,82.81
2018-12-01T08:38:26.506Z,82.87
2018-12-01T08:40:54.845Z,82.50
2018-12-01T08:43:23.165Z,82.18
2018-12-01T08:45:51.567Z,81.54
2018-12-01T08:48:20.093Z,81.43
2018-12-01T08:50:48.585Z,81.38
2018-12-01T08:53:17.085Z,81.08
2018-12-01T08:55:45.526Z,80.91
2018-12-01T08:58:17.305Z,80.80
2018-12-01T09:00:46.665Z,80.57
2018-12-01T09:03:20.285Z,80.11
2018-12-01T09:05:48.613Z,80.25
2018-12-01T09:08:17.153Z,79.96
2018-12-01T09:10:45.734Z,79.73
2018-12-01T09:13:14.159Z,79.28
2018-12-01T09:15:43.170Z,79.46
2018-12-01T09:18:11.462Z,79.40
2018-12-01T09:20:39.535Z,79.05
2018-12-01T09:23:08.640Z,79.11
2018-12-01T09:25:36.792Z,79.04
2018-12-01T09:28:05.637Z,79.11
2018-12-01T09:30:34.983Z,78.95
2018-12-01T09:33:03.135Z,78.59
2018-12-01T09:35:31.461Z,78.25
2018-12-01T09:37:59.848Z,78.46
2018-12-01T09:40:28.240Z,78.72
2018-12-01T09:42:56.600Z,78.85
2018-12-01T09:45:26.159Z,78.04
2018-12-01T09:47:55.459Z,78.16
2018-12-01T09:50:23.700Z,78.77
2018-12-01T09:52:53.159Z,78.07
2018-12-01T09:55:23.579Z,78.12
2018-12-01T09:57:51.900Z,78.00
2018-12-01T10:00:22.921Z,77.95
2018-12-01T10:02:51.244Z,78.31
2018-12-01T10:05:20.067Z,77.60
2018-12-01T10:07:48.450Z,77.39
2018-12-01T10:10:17.779Z,76.79
2018-12-01T10:12:46.959Z,76.47
2018-12-01T10:15:16.378Z,76.48
2018-12-01T10:17:44.844Z,76.92
2018-12-01T10:20:20.879Z,76.61
2018-12-01T10:22:49.239Z,76.00
2018-12-01T10:25:18.080Z,76.13
2018-12-01T10:27:47.239Z,76.10
2018-12-01T10:30:16.620Z,75.99
2018-12-01T10:32:44.988Z,75.13
2018-12-01T10:35:15.341Z,75.42
2018-12-01T10:37:44.499Z,75.03
2018-12-01T10:40:13.499Z,74.53
2018-12-01T10:42:41.789Z,74.24
2018-12-01T10:45:14.190Z,74.41
2018-12-01T10:47:42.999Z,74.20
2018-12-01T10:50:13.039Z,74.33
2018-12-01T10:52:41.480Z,73.78
2018-12-01T10:55:28.279Z,73.40
2018-12-01T10:57:57.879Z,73.42
2018-12-01T11:00:32.767Z,73.31
2018-12-01T11:03:05.990Z,73.31
2018-12-01T11:05:35.690Z,72.99
2018-12-01T11:08:05.667Z,72.96
2018-12-01T11:10:35.246Z,72.93
2018-12-01T11:13:04.166Z,73.06
2018-12-01T11:15:33.347Z,72.89
2018-12-01T11:18:01.779Z,72.83
2018-12-01T11:20:30.799Z,72.92
2018-12-01T11:22:59.101Z,72.54
2018-12-01T11:25:27.399Z,72.43
2018-12-01T11:27:55.719Z,72.64
2018-12-01T11:30:23.959Z,72.77
2018-12-01T11:32:52.278Z,72.65
2018-12-01T11:35:20.562Z,72.70
2018-12-01T11:37:48.859Z,72.30
2018-12-01T11:40:18.240Z,72.44
2018-12-01T11:42:46.756Z,71.69
2018-12-01T11:45:16.516Z,71.84
2018-12-01T11:47:44.877Z,71.58
2018-12-01T11:50:17.957Z,71.54
2018-12-01T11:52:48.048Z,71.22
2018-12-01T11:55:19.637Z,71.18
2018-12-01T11:57:47.905Z,71.50
2018-12-01T12:00:17.322Z,71.18
2018-12-01T12:02:45.773Z,70.38
2018-12-01T12:05:14.884Z,70.30
2018-12-01T12:07:54.069Z,71.01
2018-12-01T12:10:22.596Z,71.12
2018-12-01T12:12:51.809Z,70.82
2018-12-01T12:15:21.009Z,70.70
2018-12-01T12:17:51.110Z,71.00
2018-12-01T12:20:19.596Z,71.43
2018-12-01T12:22:47.858Z,71.23
2018-12-01T12:25:16.149Z,71.76
2018-12-01T12:27:44.529Z,71.32
2018-12-01T12:30:13.498Z,71.49
2018-12-01T12:32:41.709Z,71.45
2018-12-01T12:35:10.877Z,70.95
2018-12-01T12:37:38.939Z,71.56
2018-12-01T12:40:11.569Z,70.85
2018-12-01T12:42:39.904Z,70.94
2018-12-01T12:45:10.535Z,71.83
2018-12-01T12:47:38.701Z,71.12
2018-12-01T12:50:23.499Z,70.78
2018-12-01T12:52:53.544Z,70.76
2018-12-01T12:55:26.403Z,70.75
2018-12-01T12:57:56.539Z,70.29
2018-12-01T13:00:28.299Z,70.97
2018-12-01T13:02:58.428Z,71.21
2018-12-01T13:05:28.249Z,70.39
2018-12-01T13:07:58.984Z,70.97
2018-12-01T13:10:27.994Z,70.93
2018-12-01T13:12:56.561Z,70.65
2018-12-01T13:15:31.549Z,71.08
2018-12-01T13:18:02.734Z,71.07
2018-12-01T13:23:26.263Z,71.62
2018-12-01T13:25:59.312Z,71.46
2018-12-01T13:28:36.511Z,71.25
2018-12-01T13:31:07.008Z,71.33
2018-12-01T13:33:38.014Z,71.50
2018-12-01T13:36:08.748Z,71.09
2018-12-01T13:38:41.969Z,71.39
2018-12-01T13:41:18.149Z,71.58
2018-12-01T13:43:51.164Z,71.21
2018-12-01T13:46:37.677Z,71.39
2018-12-01T13:49:06.072Z,71.86
2018-12-01T13:51:34.519Z,71.42
2018-12-01T13:54:04.383Z,70.87
2018-12-01T13:56:46.704Z,71.41
2018-12-01T13:59:15.670Z,70.99
2018-12-01T14:01:45.352Z,71.26
2018-12-01T14:04:13.886Z,70.99
2018-12-01T14:06:42.767Z,71.17
2018-12-01T14:09:11.224Z,71.43
2018-12-01T14:11:41.078Z,71.39
2018-12-01T14:14:09.294Z,71.17
2018-12-01T14:16:37.899Z,70.82
2018-12-01T14:19:07.544Z,71.29
2018-12-01T14:21:35.801Z,71.43
2018-12-01T14:24:04.560Z,71.30
2018-12-01T14:26:33.449Z,71.69
2018-12-01T14:29:02.213Z,71.13
2018-12-01T14:31:31.143Z,71.23
2018-12-01T14:34:00.199Z,71.16
2018-12-01T14:36:29.056Z,71.07
2018-12-01T14:38:58.151Z,71.01
2018-12-01T14:47:26.146Z,71.41
2018-12-01T14:50:03.559Z,71.56
2018-12-01T14:52:32.677Z,71.47
2018-12-01T14:55:01.552Z,71.99
2018-12-01T14:57:32.366Z,72.65
2018-12-01T15:00:04.358Z,72.41
2018-12-01T15:02:32.636Z,72.97
2018-12-01T15:05:11.718Z,73.00
2018-12-01T15:07:40.716Z,73.34
2018-12-01T15:10:11.963Z,73.26
2018-12-01T15:12:41.500Z,73.01
2018-12-01T15:21:09.123Z,73.61
2018-12-01T15:26:45.248Z,73.43
2018-12-01T15:29:14.901Z,73.83
2018-12-01T15:31:48.078Z,73.73
2018-12-01T15:37:07.999Z,73.49
2018-12-01T15:42:40.766Z,72.69
2018-12-01T15:48:19.117Z,72.89
2018-12-01T15:51:00.300Z,72.78
2018-12-01T15:53:30.900Z,72.47
2018-12-01T15:56:00.106Z,72.48
2018-12-01T16:10:55.754Z,72.37
2018-12-01T16:16:35.863Z,72.20
2018-12-01T16:19:08.467Z,72.56
2018-12-01T16:24:31.023Z,71.97
2018-12-01T16:27:00.663Z,72.14
2018-12-01T16:41:51.981Z,72.87
2018-12-01T16:44:24.861Z,72.86
2018-12-01T16:47:01.868Z,72.61
2018-12-01T16:50:00.073Z,72.76
2018-12-01T16:52:52.750Z,72.86
2018-12-01T16:56:01.178Z,72.75
2018-12-01T16:58:30.895Z,72.53
2018-12-01T17:10:14.232Z,72.83
2018-12-01T21:47:26.172Z,84.18
2018-12-01T21:49:54.532Z,84.15
2018-12-01T21:52:31.820Z,84.94
2018-12-01T21:55:21.394Z,85.45
2018-12-01T21:57:54.501Z,85.57
2018-12-01T22:00:27.751Z,86.05
2018-12-01T22:03:15.559Z,86.84
2018-12-01T22:08:37.952Z,87.58
2018-12-01T22:11:11.511Z,87.65
2018-12-01T22:13:47.600Z,87.71
2018-12-01T22:16:16.371Z,87.98
2018-12-01T22:18:44.939Z,88.68
2018-12-01T22:21:17.100Z,88.47
2018-12-01T22:23:45.819Z,88.73
2018-12-01T22:26:19.031Z,88.62
2018-12-01T22:28:47.654Z,89.00
2018-12-01T22:31:16.792Z,88.85
2018-12-01T22:33:45.901Z,88.50
2018-12-01T22:36:14.511Z,88.72
2018-12-01T22:38:43.613Z,89.30
2018-12-01T22:41:12.711Z,89.77
2018-12-01T22:43:41.219Z,90.05
2018-12-01T22:46:09.739Z,89.68
2018-12-01T22:48:40.562Z,90.50
2018-12-01T22:51:12.532Z,90.24
2018-12-01T22:53:41.844Z,90.16
2018-12-01T22:56:10.634Z,90.35
2018-12-01T22:58:47.152Z,90.03
2018-12-01T23:01:15.552Z,89.34
2018-12-01T23:03:45.589Z,88.93
2018-12-01T23:06:14.520Z,88.96
2018-12-01T23:08:43.280Z,89.28
2018-12-01T23:11:16.588Z,88.76
2018-12-01T23:13:53.715Z,88.73
2018-12-01T23:16:22.418Z,87.32
2018-12-01T23:18:52.638Z,87.34
2018-12-01T23:21:21.195Z,87.07
2018-12-01T23:23:51.544Z,87.01
2018-12-01T23:26:21.648Z,86.50
2018-12-01T23:28:50.544Z,86.90
2018-12-01T23:31:25.069Z,86.99
2018-12-01T23:36:41.986Z,85.47
2018-12-01T23:39:12.015Z,85.29
2018-12-01T23:41:46.478Z,84.55
2018-12-01T23:44:22.923Z,83.86
2018-12-01T23:46:52.958Z,83.17
2018-12-01T23:49:23.869Z,82.69
2018-12-01T23:51:59.933Z,82.00
2018-12-01T23:54:31.993Z,82.18
2018-12-01T23:57:07.064Z,82.15
2018-12-01T23:59:38.807Z,81.12
